• Join FlightAware (Why Join?)
  • Login
  • US Flag 
03:08AM EDT


 

Airport Tracker/Info


-or-


 

Live Flight TrackerFlight Track Log ✈ N662US ✈ 28-Apr-2013 ✈ KATL - RJAA / NRT

Flight Track Log - Related Links

Times and Time Zones

All times are in EDT time to prevent confusion due to time zone crossing. See the N662US flight status page for this flight to view local times or setup timezone preferences in your user account.

Time Position Orientation Groundspeed Altitude Reporting Facility
EDT Latitude Longitude Course Direction KTS MPH feet Rate Location/Type
03:29PM 33.6330 -84.4970 273° West 204 235 2,400  Level FlightAware
03:29PM 33.6360 -84.5350 275° West 232 267 3,100 960 Climbing FlightAware
03:30PM 33.6470 -84.5580 300° West 264 304 3,300 1,320 Climbing FlightAware
03:30PM 33.6740 -84.5780 328° Northwest 280 322 4,000 1,560 Climbing FlightAware
03:30PM 33.7040 -84.5960 333° Northwest 303 349 4,500 1,500 Climbing FlightAware
03:31PM 33.7430 -84.5990 356° North 313 360 5,400 2,280 Climbing FlightAware
03:31PM 33.7890 -84.6000 359° North 319 367 6,600 2,280 Climbing FlightAware
03:32PM 33.8250 -84.5990 North 325 374 7,500 2,280 Climbing FlightAware
03:32PM 33.8710 -84.5890 10° North 331 381 8,700 2,280 Climbing FlightAware
03:33PM 33.9180 -84.5770 12° North 349 402 9,800 1,860 Climbing FlightAware
03:33PM 33.9860 -84.5580 13° North 365 420 10,900 1,680 Climbing FlightAware
03:34PM 34.0520 -84.5390 13° North 368 423 12,100 1,740 Climbing FlightAware
03:35PM 34.1290 -84.5170 13° North 382 440 13,400 1,800 Climbing FlightAware
03:36PM 34.2000 -84.4980 12° North 394 453 14,700 2,100 Climbing FlightAware
03:36PM 34.2400 -84.4916 North 390 449 15,500 1,920 Climbing FlightAware ADS-B
03:36PM 34.3016 -84.4898 North 397 457 16,400 1,500 Climbing FlightAware ADS-B
03:37PM 34.3620 -84.4851 North 408 470 17,200 1,380 Climbing FlightAware ADS-B
03:37PM 34.4199 -84.4807 North 417 480 17,900 1,320 Climbing FlightAware ADS-B
03:38PM 34.4771 -84.4768 North 424 488 18,500 1,440 Climbing FlightAware ADS-B
03:38PM 34.5004 -84.4766 360° North 423 487 18,900 1,380 Climbing FlightAware ADS-B
03:39PM 34.5687 -84.4774 359° North 428 493 19,600 1,200 Climbing FlightAware ADS-B
03:39PM 34.6343 -84.4803 358° North 433 498 20,300 1,200 Climbing FlightAware ADS-B
03:40PM 34.6967 -84.4835 358° North 439 505 20,900 960 Climbing FlightAware ADS-B
03:40PM 34.7607 -84.4882 357° North 449 517 21,300 840 Climbing FlightAware ADS-B
03:41PM 34.8249 -84.4945 355° North 457 526 21,800 1,140 Climbing FlightAware ADS-B
03:41PM 34.8887 -84.5012 355° North 458 527 22,500 960 Climbing FlightAware ADS-B
03:42PM 34.9549 -84.5083 355° North 469 540 22,800 780 Climbing FlightAware ADS-B
03:42PM 35.0206 -84.5153 355° North 476 548 23,300 960 Climbing FlightAware ADS-B
03:43PM 35.0882 -84.5219 355° North 480 552 23,800 960 Climbing FlightAware ADS-B
03:43PM 35.1139 -84.5248 355° North 481 554 24,000 1,020 Climbing FlightAware ADS-B
03:44PM 35.2245 -84.5521 349° North 481 554 24,900 960 Climbing FlightAware ADS-B
03:44PM 35.2892 -84.5749 344° North 484 557 25,300 840 Climbing FlightAware ADS-B
03:45PM 35.3555 -84.5984 344° North 489 563 25,800 780 Climbing FlightAware ADS-B
03:45PM 35.4215 -84.6215 344° North 493 567 26,100 780 Climbing FlightAware ADS-B
03:46PM 35.4886 -84.6449 344° North 497 572 26,600 840 Climbing FlightAware ADS-B
03:46PM 35.5580 -84.6691 344° North 499 574 27,000 780 Climbing FlightAware ADS-B
03:47PM 35.6253 -84.6925 344° North 501 577 27,400 780 Climbing FlightAware ADS-B
03:47PM 35.6936 -84.7161 344° North 505 581 27,800 840 Climbing FlightAware ADS-B
03:48PM 35.7620 -84.7400 344° North 506 582 28,300 840 Climbing FlightAware ADS-B
03:48PM 35.8356 -84.7654 344° North 508 585 28,700 540 Climbing FlightAware ADS-B
03:49PM 35.9054 -84.7897 344° North 515 593 28,900 480 Climbing FlightAware ADS-B
03:50PM 35.9928 -84.8204 344° North 517 595 29,300 600 Climbing FlightAware ADS-B
03:50PM 36.0625 -84.8448 344° North 520 598 29,600 660 Climbing FlightAware ADS-B
03:51PM 36.1382 -84.8715 344° North 520 598 30,000 180 Climbing FlightAware ADS-B
03:51PM 36.2439 -84.9086 344° North 519 597 29,900 -120 Descending FlightAware ADS-B
03:52PM 36.3407 -84.9427 344° North 518 596 29,900  Level FlightAware ADS-B
03:53PM 36.4129 -84.9683 344° North 519 597 29,900  Level FlightAware ADS-B
03:53PM 36.4866 -84.9944 344° North 518 596 29,900  Level FlightAware ADS-B
03:54PM 36.5593 -85.0203 344° North 519 597 29,900  Level FlightAware ADS-B
03:54PM 36.6630 -85.0570 344° North 521 600 29,900  Level FlightAware
03:55PM 36.6836 -85.0648 343° North 521 600 29,900  Level FlightAware ADS-B
03:55PM 36.7538 -85.0899 344° North 522 601 29,900  Level FlightAware ADS-B
03:56PM 36.8264 -85.1159 344° North 524 603 29,900  Level FlightAware ADS-B
03:56PM 36.9168 -85.1482 344° North 529 609 29,900 60 Level FlightAware ADS-B
03:57PM 36.9898 -85.1746 344° North 531 611 30,000  Climbing FlightAware ADS-B
03:57PM 37.0612 -85.2001 344° North 531 611 29,900 -120 Descending FlightAware ADS-B
03:58PM 37.1540 -85.2340 344° North 532 612 29,900  Level FlightAware
03:59PM 37.2510 -85.2690 344° North 535 616 29,900  Level FlightAware
03:59PM 37.3560 -85.3070 344° North 536 617 29,900  Level FlightAware
04:00PM 37.4500 -85.3410 344° North 535 616 29,900  Level FlightAware
04:01PM 37.5450 -85.3760 344° North 533 613 29,900  Level FlightAware
04:01PM 37.6550 -85.4160 344° North 530 610 29,900  Level FlightAware
04:02PM 37.7480 -85.4500 344° North 528 608 29,900  Level FlightAware
04:03PM 37.8430 -85.4850 344° North 522 601 29,900  Level FlightAware
04:04PM 37.9440 -85.5220 344° North 515 593 29,900  Level FlightAware
04:04PM 38.0350 -85.5560 344° North 512 589 29,900  Level FlightAware
04:05PM 38.1390 -85.5960 343° North 507 583 29,900  Level FlightAware
04:06PM 38.2260 -85.6370 340° North 503 579 29,900  Level FlightAware
04:06PM 38.3230 -85.6820 340° North 499 574 29,900  Level FlightAware
04:07PM 38.4090 -85.7210 340° North 498 573 29,900  Level FlightAware
04:08PM 38.4960 -85.7610 340° North 498 573 29,900  Level FlightAware
04:08PM 38.5960 -85.8070 340° North 497 572 29,900  Level FlightAware
04:09PM 38.6830 -85.8460 341° North 492 566 29,900  Level FlightAware
04:10PM 38.7750 -85.8880 340° North 486 559 29,900  Level FlightAware
04:10PM 38.8530 -85.9240 340° North 481 554 29,900  Level FlightAware
04:11PM 38.9300 -85.9600 340° North 480 552 29,900  Level FlightAware
04:12PM 39.0280 -86.0050 340° North 476 548 29,900  Level FlightAware
04:13PM 39.1230 -86.0490 340° North 475 547 29,900  Level FlightAware
04:13PM 39.2060 -86.0880 340° North 474 545 29,900  Level FlightAware
04:14PM 39.2870 -86.1260 340° North 474 545 29,900  Level FlightAware
04:15PM 39.3640 -86.1830 330° Northwest 469 540 29,900  Level FlightAware
04:16PM 39.4620 -86.2500 332° Northwest 469 540 29,900  Level FlightAware
04:17PM 39.5760 -86.3310 331° Northwest 469 540 29,900  Level FlightAware
04:17PM 39.6670 -86.3950 332° Northwest 469 540 29,900  Level FlightAware
04:18PM 39.7430 -86.4490 331° Northwest 469 540 29,900  Level FlightAware
04:19PM 39.8310 -86.5120 331° Northwest 469 540 29,900  Level FlightAware
04:19PM 39.9060 -86.5660 331° Northwest 468 539 29,900  Level FlightAware
04:20PM 39.9720 -86.6130 331° Northwest 468 539 29,900  Level FlightAware
04:21PM 40.0600 -86.6770 331° Northwest 467 537 29,900  Level FlightAware
04:21PM 40.1420 -86.7360 331° Northwest 473 544 29,900  Level FlightAware
04:22PM 40.2240 -86.7950 331° Northwest 473 544 29,900  Level FlightAware
04:23PM 40.3050 -86.8540 331° Northwest 478 550 29,900  Level FlightAware
04:24PM 40.3800 -86.9080 331° Northwest 480 552 29,900  Level FlightAware
04:24PM 40.4800 -86.9810 331° Northwest 483 556 29,900  Level FlightAware
04:25PM 40.5600 -87.0390 331° Northwest 482 555 29,900  Level FlightAware
04:26PM 40.6380 -87.0960 331° Northwest 482 555 29,900  Level FlightAware
04:26PM 40.7120 -87.1510 331° Northwest 481 554 29,900  Level FlightAware
04:27PM 40.8040 -87.2180 331° Northwest 480 552 29,900  Level FlightAware
04:28PM 40.8850 -87.2780 331° Northwest 480 552 29,900  Level FlightAware
04:29PM 40.9690 -87.3400 331° Northwest 481 554 29,900  Level FlightAware
04:29PM 41.0460 -87.3980 330° Northwest 482 555 29,900  Level FlightAware
04:30PM 41.1250 -87.4560 331° Northwest 481 554 29,900  Level FlightAware
04:31PM 41.2130 -87.5220 331° Northwest 481 554 29,900  Level FlightAware
04:31PM 41.2910 -87.5800 331° Northwest 480 552 29,900  Level FlightAware
04:32PM 41.3760 -87.6450 330° Northwest 478 550 29,900  Level FlightAware
04:33PM 41.4540 -87.7030 331° Northwest 475 547 29,900  Level FlightAware
04:33PM 41.5320 -87.7610 331° Northwest 470 541 29,900  Level FlightAware
04:34PM 41.6180 -87.8270 330° Northwest 467 537 29,900  Level FlightAware
04:35PM 41.6890 -87.8810 330° Northwest 466 536 29,900  Level FlightAware
04:36PM 41.7750 -87.9460 331° Northwest 467 537 29,900  Level FlightAware
04:36PM 41.8510 -88.0040 330° Northwest 468 539 29,900  Level FlightAware
04:37PM 41.9340 -88.0680 330° Northwest 469 540 29,900  Level FlightAware
04:38PM 42.0120 -88.1280 330° Northwest 468 539 29,900  Level FlightAware
04:38PM 42.0830 -88.1820 331° Northwest 469 540 29,900  Level FlightAware
04:39PM 42.1700 -88.2500 330° Northwest 468 539 29,900  Level FlightAware
04:40PM 42.2430 -88.3060 330° Northwest 468 539 29,900  Level FlightAware
04:40PM 42.3180 -88.3640 330° Northwest 468 539 29,900  Level FlightAware
04:41PM 42.4050 -88.4320 330° Northwest 466 536 29,900  Level FlightAware
04:42PM 42.4770 -88.4890 330° Northwest 464 534 29,900  Level FlightAware
04:42PM 42.5390 -88.5370 330° Northwest 464 534 29,900  Level FlightAware
04:43PM 42.6320 -88.6100 330° Northwest 464 534 29,900  Level FlightAware
04:44PM 42.7650 -88.7160 330° Northwest 465 535 29,900  Level FlightAware
04:45PM 42.8410 -88.7750 330° Northwest 465 535 29,900  Level FlightAware
04:46PM 42.9160 -88.8350 330° Northwest 466 536 29,900  Level FlightAware
04:46PM 43.0000 -88.9020 330° Northwest 466 536 29,900  Level FlightAware
04:47PM 43.0760 -88.9630 330° Northwest 467 537 29,900  Level FlightAware
04:48PM 43.1520 -89.0240 330° Northwest 466 536 29,900  Level FlightAware
04:49PM 43.2330 -89.0900 329° Northwest 467 537 29,900  Level FlightAware
04:49PM 43.3070 -89.1500 329° Northwest 466 536 29,900  Level FlightAware
04:50PM 43.3930 -89.2190 330° Northwest 467 537 29,900  Level FlightAware
04:51PM 43.4680 -89.2800 329° Northwest 467 537 29,900  Level FlightAware
04:51PM 43.5320 -89.3320 330° Northwest 466 536 29,900  Level FlightAware
04:52PM 43.6250 -89.4090 329° Northwest 467 537 29,900  Level FlightAware
04:53PM 43.7270 -89.4930 329° Northwest 467 537 29,900  Level FlightAware
04:54PM 43.8050 -89.5570 329° Northwest 466 536 29,900  Level FlightAware
04:54PM 43.8830 -89.6220 329° Northwest 465 535 29,900  Level FlightAware
04:55PM 43.9640 -89.6910 328° Northwest 466 536 29,900  Level FlightAware
04:56PM 44.0440 -89.7560 330° Northwest 466 536 29,900  Level FlightAware
04:56PM 44.1030 -89.8050 329° Northwest 467 537 29,900  Level FlightAware
04:57PM 44.1780 -89.8700 328° Northwest 467 537 29,900  Level FlightAware
04:58PM 44.2870 -89.9610 329° Northwest 468 539 29,900  Level FlightAware
04:59PM 44.3650 -90.0290 328° Northwest 468 539 29,900  Level FlightAware
04:59PM 44.4350 -90.0850 330° Northwest 469 540 29,900  Level FlightAware
05:00PM 44.5110 -90.1520 328° Northwest 469 540 29,900  Level FlightAware
05:01PM 44.5900 -90.2210 328° Northwest 469 540 29,900  Level FlightAware
05:02PM 44.6520 -90.2760 328° Northwest 469 540 29,900  Level FlightAware
05:02PM 44.7150 -90.3310 328° Northwest 469 540 29,900  Level FlightAware
05:03PM 44.8710 -90.4610 329° Northwest 473 544 29,900  Level FlightAware
05:04PM 44.9550 -90.5330 329° Northwest 472 543 29,900  Level FlightAware
05:05PM 45.0360 -90.6030 329° Northwest 472 543 29,900  Level FlightAware
05:05PM 45.1110 -90.6690 328° Northwest 470 541 29,900  Level FlightAware
05:06PM 45.1860 -90.7340 329° Northwest 470 541 29,900  Level FlightAware
05:07PM 45.2700 -90.8090 328° Northwest 469 540 29,900  Level FlightAware
05:07PM 45.3400 -90.8710 328° Northwest 468 539 29,900  Level FlightAware
05:08PM 45.4220 -90.9440 328° Northwest 468 539 29,900  Level FlightAware
05:09PM 45.4980 -91.0110 328° Northwest 469 540 29,900  Level FlightAware
05:10PM 45.5790 -91.0830 328° Northwest 468 539 29,900  Level FlightAware
05:10PM 45.6540 -91.1510 328° Northwest 468 539 29,900  Level FlightAware
05:11PM 45.7290 -91.2180 328° Northwest 467 537 29,900  Level FlightAware
05:12PM 45.8110 -91.2920 328° Northwest 468 539 29,900  Level FlightAware
05:12PM 45.8830 -91.3570 328° Northwest 469 540 29,900  Level FlightAware
05:13PM 45.9570 -91.4240 328° Northwest 467 537 29,900  Level FlightAware
05:14PM 46.0400 -91.5000 328° Northwest 465 535 29,900  Level FlightAware
05:14PM 46.1130 -91.5670 328° Northwest 464 534 29,900  Level FlightAware
05:15PM 46.1860 -91.6340 328° Northwest 464 534 29,900  Level FlightAware
05:16PM 46.2650 -91.7070 327° Northwest 463 533 29,900  Level FlightAware
05:17PM 46.3380 -91.7740 328° Northwest 462 532 29,900  Level FlightAware
05:17PM 46.4190 -91.8500 327° Northwest 461 531 29,900  Level FlightAware
05:18PM 46.4960 -91.9100 332° Northwest 468 539 29,900  Level FlightAware
05:19PM 46.5810 -91.9650 336° Northwest 469 540 29,900  Level FlightAware
05:19PM 46.6610 -92.0200 335° Northwest 469 540 29,900  Level FlightAware
05:20PM 46.7390 -92.0750 334° Northwest 468 539 29,900  Level FlightAware
05:21PM 46.8280 -92.1400 333° Northwest 470 541 29,900  Level FlightAware
05:21PM 46.9080 -92.1950 335° Northwest 471 542 29,900  Level FlightAware
05:22PM 46.9870 -92.2500 335° Northwest 469 540 29,900  Level FlightAware
05:23PM 47.0710 -92.3140 333° Northwest 467 537 29,900  Level FlightAware
05:24PM 47.1450 -92.3770 330° Northwest 466 536 29,900  Level FlightAware
05:24PM 47.2310 -92.4520 329° Northwest 466 536 29,900  Level FlightAware
05:25PM 47.3060 -92.5170 330° Northwest 466 536 29,900  Level FlightAware
05:26PM 47.3810 -92.5830 329° Northwest 466 536 29,900  Level FlightAware
05:26PM 47.4610 -92.6530 329° Northwest 467 537 29,900  Level FlightAware
05:27PM 47.5360 -92.7190 329° Northwest 468 539 29,900  Level FlightAware
05:28PM 47.6210 -92.7940 329° Northwest 468 539 29,900  Level FlightAware
05:28PM 47.6970 -92.8620 329° Northwest 469 540 29,900  Level FlightAware
05:29PM 47.7680 -92.9240 330° Northwest 470 541 29,900  Level FlightAware
05:30PM 47.8530 -93.0000 329° Northwest 471 542 29,900  Level FlightAware
05:31PM 47.9250 -93.0640 329° Northwest 471 542 29,900  Level FlightAware
05:31PM 47.9910 -93.1250 328° Northwest 471 542 29,900  Level FlightAware
05:32PM 48.0530 -93.1840 328° Northwest 471 542 29,900  Level FlightAware
05:33PM 48.1160 -93.2430 328° Northwest 471 542 29,900  Level FlightAware
05:33PM 48.1950 -93.3160 328° Northwest 471 542 29,900  Level FlightAware
05:34PM 48.2580 -93.3750 328° Northwest 471 542 29,900  Level FlightAware
05:35PM 48.3914 -93.4769 328° Northwest 473 544 29,900  Level Minneapolis Center
05:36PM 48.5264 -93.6000 329° Northwest 473 544 29,900 120 Level Minneapolis Center
05:37PM 48.6375 -93.7022 329° Northwest 472 543 30,200 600 Climbing Minneapolis Center
05:38PM 48.7511 -93.8064 329° Northwest 476 548 31,200 780 Climbing Minneapolis Center
05:39PM 48.8406 -93.8892 329° Northwest 475 547 31,900 300 Climbing Minneapolis Center
05:40PM 48.9753 -94.0131 329° Northwest 474 545 31,900  Level Minneapolis Center
05:41PM 49.0833 -94.1333 324° Northwest 470 541 31,900  Level Winnipeg Center
05:42PM 49.2167 -94.2333 334° Northwest 470 541 31,900  Level Winnipeg Center
05:43PM 49.3167 -94.3167 331° Northwest 470 541 31,900  Level Winnipeg Center
05:44PM 49.4333 -94.4500 323° Northwest 480 552 31,900  Level Winnipeg Center
05:45PM 49.5333 -94.5500 327° Northwest 480 552 31,900  Level Winnipeg Center
05:46PM 49.6500 -94.6667 327° Northwest 470 541 31,900  Level Winnipeg Center
05:47PM 49.7500 -94.7667 327° Northwest 470 541 31,900  Level Winnipeg Center
05:48PM 49.8833 -94.8667 334° Northwest 480 552 31,900  Level Winnipeg Center
05:49PM 50.0000 -94.9833 327° Northwest 480 552 31,900  Level Winnipeg Center
05:50PM 50.1167 -95.0833 331° Northwest 480 552 31,900  Level Winnipeg Center
05:51PM 50.2167 -95.2167 320° Northwest 470 541 31,900  Level Winnipeg Center
05:52PM 50.3333 -95.3167 331° Northwest 480 552 31,900  Level Winnipeg Center
05:53PM 50.4333 -95.4167 328° Northwest 480 552 31,900  Level Winnipeg Center
05:54PM 50.5500 -95.5500 324° Northwest 480 552 31,900  Level Winnipeg Center
05:55PM 50.6500 -95.6500 328° Northwest 480 552 31,900  Level Winnipeg Center
05:56PM 50.7833 -95.7500 335° Northwest 470 541 31,900  Level Winnipeg Center
05:57PM 50.9000 -95.8833 324° Northwest 470 541 31,900  Level Winnipeg Center
05:58PM 51.0000 -95.9833 328° Northwest 460 529 31,900  Level Winnipeg Center
05:59PM 51.1000 -96.1167 320° Northwest 460 529 31,900  Level Winnipeg Center
06:00PM 51.2167 -96.2167 332° Northwest 470 541 31,900  Level Winnipeg Center
06:01PM 51.3167 -96.3167 328° Northwest 460 529 31,900  Level Winnipeg Center
06:02PM 51.4167 -96.4333 324° Northwest 470 541 31,900  Level Winnipeg Center
06:03PM 51.5333 -96.5667 325° Northwest 460 529 31,900  Level Winnipeg Center
06:04PM 51.6333 -96.6667 328° Northwest 460 529 31,900  Level Winnipeg Center
06:05PM 51.7333 -96.7833 324° Northwest 460 529 31,900  Level Winnipeg Center
06:06PM 51.8500 -96.8833 332° Northwest 460 529 31,900  Level Winnipeg Center
06:07PM 51.9500 -97.0167 321° Northwest 460 529 31,900  Level Winnipeg Center
06:08PM 52.0500 -97.1333 324° Northwest 450 518 31,900  Level Winnipeg Center
06:09PM 52.1667 -97.2333 332° Northwest 460 529 31,900  Level Winnipeg Center
06:10PM 52.2667 -97.3500 324° Northwest 460 529 31,900  Level Winnipeg Center
06:11PM 52.3833 -97.4833 325° Northwest 450 518 31,900  Level Winnipeg Center
06:12PM 52.4833 -97.6000 325° Northwest 460 529 31,900  Level Winnipeg Center
06:13PM 52.5833 -97.7000 329° Northwest 460 529 31,900  Level Winnipeg Center
06:14PM 52.6833 -97.8167 325° Northwest 460 529 31,900  Level Winnipeg Center
06:15PM 52.8000 -97.9333 329° Northwest 460 529 31,900  Level Winnipeg Center
06:16PM 52.9000 -98.0667 321° Northwest 470 541 31,900  Level Winnipeg Center
06:17PM 53.0000 -98.1833 325° Northwest 450 518 31,900  Level Winnipeg Center
06:18PM 53.1167 -98.3333 322° Northwest 460 529 31,900  Level Winnipeg Center
06:18PM 53.1333 -98.3333 360° North 460 529 31,900  Level Edmonton Center
06:19PM 53.2167 -98.4500 320° Northwest 460 529 31,900  Level Winnipeg Center
06:20PM 53.3333 -98.5667 329° Northwest 460 529 31,900  Level Winnipeg Center
06:21PM 53.4333 -98.6833 325° Northwest 460 529 31,900  Level Winnipeg Center
06:21PM 53.4500 -98.6833 360° North 450 518 31,900  Level Edmonton Center
06:22PM 53.5500 -98.8333 318° Northwest 470 541 31,900  Level Edmonton Center
06:23PM 53.6667 -98.9333 333° Northwest 460 529 31,900  Level Edmonton Center
06:24PM 53.7500 -99.0667 317° Northwest 450 518 31,900  Level Edmonton Center
06:25PM 53.8667 -99.1833 329° Northwest 450 518 31,900  Level Edmonton Center
06:26PM 53.9333 -99.3000 314° West 450 518 31,900  Level Winnipeg Center
06:27PM 54.0500 -99.4500 323° Northwest 460 529 31,900  Level Winnipeg Center
06:28PM 54.1500 -99.5667 326° Northwest 450 518 31,900  Level Winnipeg Center
06:29PM 54.2667 -99.6833 330° Northwest 450 518 31,900  Level Winnipeg Center
06:30PM 54.3667 -99.8000 326° Northwest 450 518 31,900  Level Winnipeg Center
06:31PM 54.4667 -99.9667 316° Northwest 450 518 31,900  Level Winnipeg Center
06:32PM 54.5667 -100.0833 326° Northwest 450 518 31,900  Level Winnipeg Center
06:33PM 54.6500 -100.2000 321° Northwest 460 529 31,900  Level Winnipeg Center
06:33PM 54.6833 -100.2167 344° North 450 518 31,900  Level Edmonton Center
06:34PM 54.8000 -100.3500 327° Northwest 450 518 31,900  Level Edmonton Center
06:35PM 54.8667 -100.4500 319° Northwest 450 518 31,900  Level Winnipeg Center
06:36PM 54.9833 -100.6167 321° Northwest 450 518 31,900  Level Winnipeg Center
06:37PM 55.0833 -100.7333 326° Northwest 450 518 31,900  Level Winnipeg Center
06:38PM 55.1667 -100.8667 318° Northwest 450 518 31,900  Level Winnipeg Center
06:38PM 55.1833 -100.8667 360° North 450 518 31,900  Level Edmonton Center
06:39PM 55.2667 -100.9833 321° Northwest 450 518 31,900  Level Winnipeg Center
06:40PM 55.3667 -101.1167 323° Northwest 450 518 31,900  Level Winnipeg Center
06:40PM 55.3833 -101.1167 360° North 440 506 31,900  Level Edmonton Center
06:41PM 55.4833 -101.2500 323° Northwest 440 506 31,900  Level Edmonton Center
06:42PM 55.6000 -101.3833 327° Northwest 440 506 31,900  Level Edmonton Center
06:43PM 55.6667 -101.5333 308° West 450 518 31,900  Level Winnipeg Center
06:44PM 55.7833 -101.6667 327° Northwest 460 529 31,900  Level Winnipeg Center
06:45PM 55.8833 -101.8000 323° Northwest 450 518 31,900  Level Winnipeg Center
06:45PM 55.9000 -101.8167 331° Northwest 450 518 31,900  Level Edmonton Center
06:46PM 55.9833 -101.9333 322° Northwest 450 518 31,900  Level Edmonton Center
06:47PM 56.0833 -102.0667 323° Northwest 450 518 31,900  Level Edmonton Center
06:48PM 56.2000 -102.2167 324° Northwest 450 518 31,900  Level Edmonton Center
06:49PM 56.3000 -102.3667 320° Northwest 460 529 31,900  Level Edmonton Center
06:50PM 56.3667 -102.5167 309° West 460 529 31,900  Level Winnipeg Center
06:50PM 56.3833 -102.5333 331° Northwest 450 518 31,900  Level Edmonton Center
06:51PM 56.4667 -102.7167 309° West 450 518 31,900  Level Edmonton Center
06:52PM 56.5333 -102.8833 306° West 460 529 31,900  Level Winnipeg Center
06:53PM 56.6167 -103.0500 312° West 460 529 31,900  Level Winnipeg Center
06:54PM 56.7000 -103.2500 307° West 460 529 31,900  Level Winnipeg Center
06:55PM 56.7833 -103.4167 312° West 460 529 31,900  Level Winnipeg Center
06:56PM 56.8500 -103.5833 306° West 460 529 31,900  Level Winnipeg Center
06:57PM 56.9333 -103.7667 310° West 460 529 31,900  Level Winnipeg Center
06:58PM 57.0167 -103.9500 310° West 460 529 31,900  Level Winnipeg Center
06:59PM 57.1000 -104.1333 310° West 460 529 31,900  Level Winnipeg Center
07:00PM 57.1833 -104.3167 310° West 460 529 31,900  Level Winnipeg Center
07:01PM 57.2500 -104.5167 302° West 460 529 31,900  Level Winnipeg Center
07:02PM 57.3333 -104.6833 313° West 460 529 31,900  Level Winnipeg Center
07:03PM 57.4167 -104.8833 308° West 460 529 31,900  Level Winnipeg Center
07:04PM 57.5000 -105.0667 310° West 450 518 31,900  Level Winnipeg Center
07:05PM 57.5833 -105.2667 308° West 460 529 31,900  Level Winnipeg Center
07:05PM 57.5833 -105.2833 270° West 450 518 31,900  Level Edmonton Center
07:06PM 57.6667 -105.4667 310° West 460 529 31,900  Level Edmonton Center
07:07PM 57.7167 -105.6500 297° West 470 541 31,900  Level Winnipeg Center
07:08PM 57.8167 -105.8333 316° Northwest 460 529 31,900  Level Winnipeg Center
07:09PM 57.9000 -106.0333 308° West 460 529 31,900  Level Winnipeg Center
07:09PM 57.9000 -106.0500 270° West 460 529 31,900  Level Edmonton Center
07:10PM 57.9833 -106.2333 311° West 460 529 31,900  Level Edmonton Center
07:11PM 58.0500 -106.4333 302° West 460 529 31,900  Level Edmonton Center
07:12PM 58.1333 -106.6333 308° West 450 518 31,900  Level Edmonton Center
07:13PM 58.2167 -106.8333 308° West 460 529 31,900  Level Edmonton Center
07:14PM 58.2833 -107.0333 302° West 450 518 31,900  Level Edmonton Center
07:15PM 58.3667 -107.2167 311° West 450 518 31,900  Level Edmonton Center
07:16PM 58.4500 -107.4167 309° West 450 518 31,900  Level Edmonton Center
07:17PM 58.5000 -107.6167 296° West 460 529 31,900  Level Edmonton Center
07:18PM 58.5833 -107.8167 309° West 460 529 31,900  Level Edmonton Center
07:19PM 58.6667 -108.0333 307° West 460 529 31,900  Level Edmonton Center
07:20PM 58.7333 -108.2333 303° West 460 529 31,900  Level Edmonton Center
07:21PM 58.8167 -108.4333 309° West 460 529 31,900  Level Edmonton Center
07:22PM 58.8833 -108.6333 303° West 460 529 31,900  Level Edmonton Center
07:23PM 58.9667 -108.8500 307° West 460 529 31,900  Level Edmonton Center
07:24PM 59.0333 -109.0500 303° West 460 529 31,900  Level Edmonton Center
07:25PM 59.1000 -109.2500 303° West 460 529 31,900  Level Edmonton Center
07:26PM 59.1833 -109.4667 307° West 460 529 31,900  Level Edmonton Center
07:27PM 59.2500 -109.6667 303° West 460 529 31,900  Level Edmonton Center
07:28PM 59.3167 -109.8833 301° West 460 529 31,900  Level Edmonton Center
07:29PM 59.4000 -110.1000 307° West 460 529 31,900  Level Edmonton Center
07:30PM 59.4667 -110.3000 303° West 470 541 31,900  Level Edmonton Center
07:31PM 59.5333 -110.5167 301° West 460 529 31,900  Level Edmonton Center
07:32PM 59.6167 -110.7667 303° West 470 541 31,900  Level Edmonton Center
07:33PM 59.6833 -110.9833 301° West 470 541 31,900  Level Edmonton Center
07:34PM 59.7500 -111.2000 301° West 460 529 31,900  Level Edmonton Center
07:35PM 59.8167 -111.4167 302° West 460 529 31,900  Level Edmonton Center
07:36PM 59.9000 -111.6333 308° West 470 541 31,900  Level Edmonton Center
07:37PM 59.9667 -111.8500 302° West 470 541 31,900  Level Edmonton Center
07:38PM 60.0333 -112.0667 302° West 460 529 31,900  Level Edmonton Center
07:39PM 60.1000 -112.3167 298° West 460 529 31,900  Level Edmonton Center
07:40PM 60.1500 -112.5333 295° West 460 529 31,900  Level Edmonton Center
07:41PM 60.1833 -112.7833 285° West 450 518 31,900  Level Edmonton Center
07:42PM 60.2500 -113.0167 300° West 450 518 31,900  Level Edmonton Center
07:43PM 60.3000 -113.2667 292° West 450 518 31,900  Level Edmonton Center
07:44PM 60.3500 -113.4833 295° West 450 518 31,900  Level Edmonton Center
07:45PM 60.4000 -113.7000 295° West 450 518 31,900  Level Edmonton Center
07:46PM 60.4500 -113.9667 291° West 450 518 31,900  Level Edmonton Center
07:47PM 60.4833 -114.1833 287° West 450 518 31,900  Level Edmonton Center
07:48PM 60.5500 -114.4000 302° West 450 518 31,900  Level Edmonton Center
07:49PM 60.6000 -114.6667 291° West 450 518 31,900  Level Edmonton Center
07:50PM 60.6500 -114.8833 295° West 450 518 31,900  Level Edmonton Center
07:51PM 60.7000 -115.1500 291° West 450 518 31,900  Level Edmonton Center
07:52PM 60.7500 -115.4167 291° West 450 518 31,900  Level Edmonton Center
07:53PM 60.8000 -115.6333 295° West 450 518 31,900  Level Edmonton Center
07:54PM 60.8167 -115.9000 277° West 450 518 31,900  Level Edmonton Center
07:55PM 60.8667 -116.1167 295° West 450 518 31,900  Level Edmonton Center
07:56PM 60.9167 -116.3500 294° West 450 518 31,900  Level Edmonton Center
07:57PM 60.9667 -116.6167 291° West 450 518 31,900  Level Edmonton Center
07:58PM 61.0167 -116.8500 294° West 450 518 31,900  Level Edmonton Center
07:59PM 61.0667 -117.1167 291° West 450 518 31,900  Level Edmonton Center
08:00PM 61.1167 -117.3500 294° West 450 518 31,900  Level Edmonton Center
08:01PM 61.1667 -117.5833 294° West 450 518 31,900  Level Edmonton Center
08:02PM 61.1833 -117.8333 278° West 450 518 31,900  Level Edmonton Center
08:03PM 61.2333 -118.0833 293° West 450 518 31,900  Level Edmonton Center
08:04PM 61.2833 -118.3500 291° West 450 518 31,900  Level Edmonton Center
08:05PM 61.3167 -118.6167 285° West 450 518 31,900  Level Edmonton Center
08:06PM 61.3667 -118.8500 294° West 450 518 31,900  Level Edmonton Center
08:07PM 61.4000 -119.0833 287° West 450 518 31,900  Level Edmonton Center
08:08PM 61.4500 -119.3667 290° West 450 518 31,900  Level Edmonton Center
08:09PM 61.4833 -119.6000 287° West 450 518 31,900  Level Edmonton Center
08:10PM 61.5333 -119.8667 292° West 450 518 31,900  Level Edmonton Center
08:11PM 61.5667 -120.1167 286° West 450 518 31,900 240 Level Edmonton Center
08:12PM 61.6167 -120.3833 292° West 450 518 32,400 480 Climbing Edmonton Center
08:13PM 61.6500 -120.6333 286° West 450 518 32,900 540 Climbing Edmonton Center
08:14PM 61.6667 -120.9000 278° West 460 529 33,500 480 Climbing Edmonton Center
08:15PM 61.7167 -121.1333 294° West 450 518 33,900 180 Climbing Edmonton Center
08:16PM 61.7500 -121.3833 286° West 460 529 33,900  Level Edmonton Center
08:17PM 61.7833 -121.6833 283° West 460 529 33,900  Level Edmonton Center
08:18PM 61.8333 -121.9333 293° West 460 529 33,900  Level Edmonton Center
08:19PM 61.8667 -122.2167 284° West 460 529 33,900  Level Edmonton Center
08:20PM 61.9000 -122.4167 290° West 460 529 33,900  Level Edmonton Center
08:22PM 61.8886 -122.7418 266° West  Level FlightAware Approximate
08:29PM 62.0331 -124.7035 285° West  Level FlightAware Approximate
08:30PM 62.0645 -124.9805 284° West  Level FlightAware Approximate
08:31PM 62.0958 -125.2578 284° West  Level FlightAware Approximate
08:32PM 62.1266 -125.5356 283° West  Level FlightAware Approximate
08:33PM 62.1569 -125.8141 283° West  Level FlightAware Approximate
08:34PM 62.1866 -126.0930 283° West  Level FlightAware Approximate
08:35PM 62.2157 -126.3726 283° West  Level FlightAware Approximate
08:36PM 62.2443 -126.6526 282° West  Level FlightAware Approximate
08:37PM 62.2723 -126.9332 282° West  Level FlightAware Approximate
08:38PM 62.2997 -127.2143 282° West  Level FlightAware Approximate
08:39PM 62.3266 -127.4959 282° West  Level FlightAware Approximate
08:40PM 62.3529 -127.7780 281° West  Level FlightAware Approximate
08:41PM 62.3786 -128.0606 281° West  Level FlightAware Approximate
08:42PM 62.4038 -128.3436 281° West  Level FlightAware Approximate
08:43PM 62.4283 -128.6272 281° West  Level FlightAware Approximate
08:44PM 62.4524 -128.9111 281° West  Level FlightAware Approximate
08:45PM 62.4765 -129.1953 281° West  Level FlightAware Approximate
08:46PM 62.5000 -129.4800 280° West  Level FlightAware Approximate
08:47PM 62.5230 -129.7651 280° West  Level FlightAware Approximate
08:48PM 62.5453 -130.0506 280° West  Level FlightAware Approximate
08:49PM 62.5671 -130.3365 280° West  Level FlightAware Approximate
08:50PM 62.5883 -130.6229 279° West  Level FlightAware Approximate
08:51PM 62.6089 -130.9096 279° West  Level FlightAware Approximate
08:52PM 62.6290 -131.1968 279° West  Level FlightAware Approximate
08:53PM 62.6484 -131.4843 278° West  Level FlightAware Approximate
08:54PM 62.6673 -131.7722 278° West  Level FlightAware Approximate
08:55PM 62.6855 -132.0605 278° West  Level FlightAware Approximate
08:56PM 62.7032 -132.3491 278° West  Level FlightAware Approximate
08:57PM 62.7203 -132.6381 277° West  Level FlightAware Approximate
08:58PM 62.7367 -132.9274 277° West  Level FlightAware Approximate
08:59PM 62.7525 -133.2170 277° West  Level FlightAware Approximate
09:00PM 62.7676 -133.5069 277° West  Level FlightAware Approximate
09:01PM 62.7822 -133.7972 276° West  Level FlightAware Approximate
09:02PM 62.7961 -134.0877 276° West  Level FlightAware Approximate
09:03PM 62.8095 -134.3785 276° West  Level FlightAware Approximate
09:04PM 62.8223 -134.6695 276° West  Level FlightAware Approximate
09:05PM 62.8344 -134.9608 275° West  Level FlightAware Approximate
09:06PM 62.8460 -135.2523 275° West  Level FlightAware Approximate
09:07PM 62.8569 -135.5441 275° West  Level FlightAware Approximate
09:08PM 62.8673 -135.8360 275° West  Level FlightAware Approximate
09:09PM 62.8770 -136.1282 274° West  Level FlightAware Approximate
09:10PM 62.8861 -136.4205 274° West  Level FlightAware Approximate
09:11PM 62.8947 -136.7130 274° West  Level FlightAware Approximate
09:12PM 62.9026 -137.0057 274° West  Level FlightAware Approximate
09:13PM 62.9099 -137.2986 273° West  Level FlightAware Approximate
09:14PM 62.9166 -137.5916 273° West  Level FlightAware Approximate
09:15PM 62.9227 -137.8847 273° West  Level FlightAware Approximate
09:16PM 62.9282 -138.1779 272° West  Level FlightAware Approximate
09:17PM 62.9331 -138.4712 272° West  Level FlightAware Approximate
09:18PM 62.9374 -138.7646 272° West  Level FlightAware Approximate
09:19PM 62.9411 -139.0581 272° West  Level FlightAware Approximate
09:20PM 62.9441 -139.3517 271° West  Level FlightAware Approximate
09:21PM 62.9466 -139.6453 271° West  Level FlightAware Approximate
09:22PM 62.9484 -139.9390 271° West  Level FlightAware Approximate
09:23PM 62.9496 -140.2327 271° West  Level FlightAware Approximate
09:24PM 62.9503 -140.5264 270° West  Level FlightAware Approximate
09:25PM 62.9503 -140.8201 270° West  Level FlightAware Approximate
09:26PM 62.9482 -141.1137 268° West  Level FlightAware Approximate
09:27PM 62.9432 -141.4072 268° West  Level FlightAware Approximate
09:27PM 62.9500 -140.9333 263° West 460 529 34,000  Level Anchorage Center
09:28PM 62.9375 -141.7006 268° West  Level FlightAware Approximate
09:28PM 62.9500 -141.2333 270° West 480 552 34,000  Level Anchorage Center
09:29PM 62.9288 -141.9934 264° West  Level FlightAware Approximate
09:29PM 62.9500 -141.5333 270° West 470 541 34,000  Level Anchorage Center
09:30PM 62.9144 -142.2851 264° West  Level FlightAware Approximate
09:30PM 62.9500 -141.8167 270° West 480 552 34,000  Level Anchorage Center
09:31PM 62.8993 -142.5765 264° West  Level FlightAware Approximate
09:31PM 62.9500 -142.1000 270° West 470 541 34,000  Level Anchorage Center
09:32PM 62.8837 -142.8676 263° West  Level FlightAware Approximate
09:32PM 62.9500 -142.4000 270° West 470 541 34,000  Level Anchorage Center
09:33PM 62.9500 -142.6833 270° West 470 541 34,000  Level Anchorage Center
09:34PM 62.9333 -142.9667 263° West 470 541 34,000  Level Anchorage Center
09:35PM 62.9333 -143.2667 270° West 470 541 34,000  Level Anchorage Center
09:36PM 62.9333 -143.5500 270° West 470 541 34,000  Level Anchorage Center
09:37PM 62.9167 -143.8333 263° West 470 541 34,000  Level Anchorage Center
09:38PM 62.9167 -144.1333 270° West 480 552 34,000  Level Anchorage Center
09:39PM 62.9167 -144.4167 270° West 470 541 34,000  Level Anchorage Center
09:40PM 62.9000 -144.7000 263° West 470 541 34,000  Level Anchorage Center
09:41PM 62.9000 -145.0000 270° West 480 552 34,000  Level Anchorage Center
09:42PM 62.8833 -145.2833 263° West 480 552 34,000  Level Anchorage Center
09:43PM 62.8833 -145.5833 270° West 480 552 34,000  Level Anchorage Center
09:44PM 62.8667 -145.8667 263° West 470 541 34,000  Level Anchorage Center
09:45PM 62.8500 -146.1500 263° West 470 541 34,000  Level Anchorage Center
09:46PM 62.8500 -146.4333 270° West 460 529 34,000  Level Anchorage Center
09:47PM 62.8333 -146.7167 263° West 460 529 34,000  Level Anchorage Center
09:48PM 62.8167 -147.0000 263° West 460 529 34,000  Level Anchorage Center
09:49PM 62.8167 -147.2833 270° West 460 529 34,000  Level Anchorage Center
09:50PM 62.8000 -147.5667 263° West 460 529 34,000  Level Anchorage Center
09:51PM 62.7833 -147.8500 263° West 470 541 34,000  Level Anchorage Center
09:52PM 62.7667 -148.1333 263° West 460 529 34,000 -60 Level Anchorage Center
09:58PM 62.6830 -149.8410 263° West 466 536 33,900 -60 Descending FlightAware
09:58PM 62.6710 -150.0480 263° West 467 537 33,900  Level FlightAware
09:59PM 62.6590 -150.2390 262° West 466 536 33,900  Level FlightAware
10:00PM 62.6490 -150.3850 262° West 467 537 33,900  Level FlightAware
10:00PM 62.6340 -150.6150 262° West 468 539 33,900  Level FlightAware
10:01PM 62.6230 -150.7840 262° West 467 537 33,900  Level FlightAware
10:02PM 62.6060 -151.0270 261° West 469 540 33,900  Level FlightAware
10:03PM 62.5920 -151.2110 261° West 471 542 33,900  Level FlightAware
10:03PM 62.5790 -151.3900 261° West 472 543 33,900  Level FlightAware
10:04PM 62.5680 -151.5460 261° West 472 543 33,900  Level FlightAware
10:05PM 62.5370 -151.9600 261° West 472 543 33,900  Level FlightAware
10:06PM 62.5230 -152.1320 260° West 475 547 34,000  Climbing FlightAware
10:07PM 62.5020 -152.4010 261° West 475 547 33,900 -60 Descending FlightAware
10:08PM 62.4780 -152.6760 259° West 475 547 33,900  Level FlightAware
10:09PM 62.4640 -152.8340 259° West 475 547 33,900  Level FlightAware
10:09PM 62.4490 -152.9930 259° West 475 547 33,900  Level FlightAware
10:10PM 62.4280 -153.2810 261° West 472 543 33,900  Level FlightAware
10:11PM 62.4150 -153.4390 260° West 472 543 33,900  Level FlightAware
10:11PM 62.4020 -153.5970 260° West 472 543 33,900  Level FlightAware
10:12PM 62.3890 -153.7540 260° West 472 543 33,900  Level FlightAware
10:13PM 62.3760 -153.9120 260° West 472 543 33,900  Level FlightAware
10:13PM 62.3630 -154.0700 260° West 472 543 33,900  Level FlightAware
10:14PM 62.3470 -154.2670 260° West 472 543 33,900  Level FlightAware
10:15PM 62.3340 -154.4240 260° West 472 543 33,900  Level FlightAware
10:16PM 62.3210 -154.5820 260° West 472 543 33,900  Level FlightAware
10:16PM 62.3080 -154.7390 260° West 472 543 33,900  Level FlightAware
10:17PM 62.2950 -154.8960 260° West 472 543 33,900  Level FlightAware
10:18PM 62.2790 -155.0930 260° West 472 543 33,900  Level FlightAware
10:18PM 62.2690 -155.2110 260° West 472 543 33,900  Level FlightAware
10:19PM 62.2560 -155.3680 260° West 472 543 33,900  Level FlightAware
10:20PM 62.2430 -155.5250 260° West 472 543 33,900  Level FlightAware
10:21PM 62.1333 -156.1333 260° West 470 541 34,000  Climbing Anchorage Center
10:22PM 62.1000 -156.4000 255° West 460 529 34,000  Level Anchorage Center
10:23PM 62.0667 -156.6833 256° West 460 529 34,000  Level Anchorage Center
10:24PM 62.0333 -156.9500 255° West 470 541 34,000  Level Anchorage Center
10:25PM 62.0000 -157.2167 255° West 470 541 34,000  Level Anchorage Center
10:26PM 61.9667 -157.4833 255° West 470 541 34,000  Level Anchorage Center
10:27PM 61.9333 -157.7667 256° West 470 541 34,000  Level Anchorage Center
10:28PM 61.9000 -158.0167 254° West 470 541 34,000  Level Anchorage Center
10:29PM 61.8667 -158.3500 258° West 470 541 34,000  Level Anchorage Center
10:30PM 61.8333 -158.6167 255° West 470 541 34,000  Level Anchorage Center
10:31PM 61.8000 -158.8833 255° West 470 541 34,000  Level Anchorage Center
10:32PM 61.7667 -159.1167 253° West 470 541 34,000  Level Anchorage Center
10:33PM 61.7333 -159.3833 255° West 460 529 34,000  Level Anchorage Center
10:34PM 61.6833 -159.6333 247° West 460 529 34,000 -60 Level Anchorage Center
10:35PM 61.6500 -159.9500 258° West 470 541 33,900 240 Descending Anchorage Center
10:36PM 61.6167 -160.2167 255° West 470 541 34,500 780 Climbing Anchorage Center
10:37PM 61.5667 -160.4833 249° West 480 552 35,500 720 Climbing Anchorage Center
10:38PM 61.5333 -160.7333 254° West 470 541 36,000 240 Climbing Anchorage Center
10:39PM 61.5000 -161.0167 256° West 480 552 36,000  Level Anchorage Center
10:40PM 61.4500 -161.2833 249° West 480 552 36,000  Level Anchorage Center
10:41PM 61.4167 -161.5500 255° West 470 541 36,000  Level Anchorage Center
10:42PM 61.3667 -161.8167 249° West 480 552 36,000  Level Anchorage Center
10:43PM 61.3333 -162.0667 255° West 470 541 36,000  Level Anchorage Center
10:44PM 61.2833 -162.3333 249° West 470 541 36,000  Level Anchorage Center
10:45PM 61.2333 -162.6000 249° West 480 552 36,000  Level Anchorage Center
10:46PM 61.2000 -162.8500 255° West 470 541 36,000  Level Anchorage Center
10:47PM 61.1500 -163.1167 249° West 470 541 36,000  Level Anchorage Center
10:48PM 61.1000 -163.3833 249° West 480 552 36,000  Level Anchorage Center
10:49PM 61.0667 -163.6333 255° West 480 552 36,000  Level Anchorage Center
10:50PM 61.0167 -163.9000 249° West 480 552 36,000  Level Anchorage Center
10:51PM 60.9667 -164.1667 249° West 480 552 36,000  Level Anchorage Center
10:52PM 60.9167 -164.4167 248° West 480 552 36,000  Level Anchorage Center
10:53PM 60.8667 -164.6833 249° West 490 564 36,000  Level Anchorage Center
10:54PM 60.8167 -164.9500 249° West 480 552 36,000  Level Anchorage Center
10:55PM 60.7833 -165.2167 256° West 480 552 36,000  Level Anchorage Center
10:56PM 60.7333 -165.4833 249° West 480 552 36,000  Level Anchorage Center
10:57PM 60.7000 -165.7500 256° West 480 552 36,000  Level Anchorage Center
10:58PM 60.6667 -165.9500 251° West 480 552 36,000  Level Anchorage Center
10:59PM 60.6167 -166.2167 249° West 480 552 36,000  Level Anchorage Center
11:00PM 60.5667 -166.4667 248° West 480 552 36,000  Level Anchorage Center
11:01PM 60.5333 -166.7333 256° West 480 552 36,000  Level Anchorage Center
11:02PM 60.4833 -167.0000 249° West 480 552 36,000  Level Anchorage Center
11:03PM 60.4333 -167.2500 248° West 490 564 36,000  Level Anchorage Center
11:04PM 60.3833 -167.5667 252° West 490 564 36,000  Level Anchorage Center
11:05PM 60.3333 -167.8333 249° West 490 564 36,000  Level Anchorage Center
11:06PM 60.2833 -168.1000 249° West 490 564 36,000  Level Anchorage Center
11:07PM 60.2333 -168.3500 248° West 490 564 36,000  Level Anchorage Center
11:08PM 60.2000 -168.6000 255° West 480 552 36,000  Level Anchorage Center
11:09PM 60.1500 -168.8667 249° West 490 564 36,000  Level Anchorage Center
11:10PM 60.1000 -169.1167 248° West 480 552 36,000  Level Anchorage Center
11:11PM 60.0500 -169.3667 248° West 480 552 36,000  Level Anchorage Center
11:12PM 60.0000 -169.6167 248° West 480 552 36,000  Level Anchorage Center
11:13PM 59.9500 -169.8667 248° West 480 552 36,000  Level Anchorage Center
11:14PM 59.9000 -170.1167 248° West 480 552 36,000  Level Anchorage Center
11:15PM 59.8667 -170.3333 253° West 470 541 36,000  Level Anchorage Center
11:16PM 59.8167 -170.5667 247° West 470 541 36,000  Level Anchorage Center
11:17PM 59.7500 -170.8167 242° Southwest 480 552 36,000  Level Anchorage Center
11:18PM 59.7000 -171.0500 247° West 470 541 36,000  Level Anchorage Center
11:19PM 59.6500 -171.3500 252° West 480 552 36,000  Level Anchorage Center
11:20PM 59.6000 -171.5500 244° Southwest 470 541 36,000  Level Anchorage Center
11:21PM 59.5500 -171.7833 247° West 470 541 36,000  Level Anchorage Center
11:22PM 59.5000 -172.0333 249° West 480 552 36,000  Level Anchorage Center
11:23PM 59.4500 -172.2667 247° West 470 541 36,000  Level Anchorage Center
11:24PM 59.4000 -172.5167 249° West 480 552 36,000  Level Anchorage Center
11:25PM 59.3500 -172.7500 247° West 470 541 36,000  Level Anchorage Center
11:26PM 59.3000 -173.0000 249° West 470 541 36,000  Level Anchorage Center
11:27PM 59.2500 -173.2500 249° West 480 552 36,000  Level Anchorage Center
11:28PM 59.2000 -173.4833 247° West 480 552 36,000  Level Anchorage Center
11:29PM 59.1500 -173.7333 249° West 480 552 36,000  Level Anchorage Center
11:30PM 59.1000 -173.9667 247° West 480 552 36,000  Level Anchorage Center
11:31PM 59.0333 -174.2000 241° Southwest 480 552 36,000  Level Anchorage Center
11:32PM 58.9833 -174.4500 249° West 470 541 36,000  Level Anchorage Center
11:33PM 58.9333 -174.6833 248° West 480 552 36,000  Level Anchorage Center
11:34PM 58.8833 -174.9167 248° West 470 541 36,000  Level Anchorage Center
11:35PM 58.8333 -175.1500 248° West 480 552 36,000  Level Anchorage Center
11:36PM 58.7833 -175.4000 249° West 480 552 36,000  Level Anchorage Center
11:37PM 58.7167 -175.6333 241° Southwest 470 541 36,000  Level Anchorage Center
11:38PM 58.6833 -175.8500 254° West 460 529 36,000  Level Anchorage Center
11:39PM 58.6000 -176.1500 242° Southwest 500 575 36,000  Level Anchorage Center
11:40PM 58.5500 -176.3667 246° West 480 552 36,000  Level Anchorage Center
11:41PM 58.4833 -176.6000 241° Southwest 480 552 36,000  Level Anchorage Center
11:42PM 58.4333 -176.8333 248° West 480 552 36,000  Level Anchorage Center
11:43PM 58.3833 -177.0667 248° West 480 552 36,000  Level Anchorage Center
11:44PM 58.3167 -177.3000 242° Southwest 470 541 36,000  Level Anchorage Center
11:47PM 58.2270 -177.6649 245° Southwest  Level FlightAware Approximate
11:54PM 57.8225 -179.2392 245° Southwest  Level FlightAware Approximate
11:55PM 57.7631 -179.4612 243° Southwest  Level FlightAware Approximate
11:56PM 57.7034 -179.6825 243° Southwest  Level FlightAware Approximate
11:57PM 57.6433 -179.9031 243° Southwest  Level FlightAware Approximate
11:58PM 57.5820 179.8779 242° Southwest  Level FlightAware Approximate
11:59PM 57.5197 179.6602 242° Southwest  Level FlightAware Approximate
12:00AM 57.4571 179.4432 242° Southwest  Level FlightAware Approximate
12:01AM 57.3941 179.2269 242° Southwest  Level FlightAware Approximate
12:02AM 57.3307 179.0114 241° Southwest  Level FlightAware Approximate
12:03AM 57.2669 178.7967 241° Southwest  Level FlightAware Approximate
12:04AM 57.2028 178.5827 241° Southwest  Level FlightAware Approximate
12:05AM 57.1384 178.3694 241° Southwest  Level FlightAware Approximate
12:06AM 57.0735 178.1569 241° Southwest  Level FlightAware Approximate
12:07AM 57.0083 177.9452 241° Southwest  Level FlightAware Approximate
12:08AM 56.9428 177.7341 240° Southwest  Level FlightAware Approximate
12:09AM 56.8769 177.5239 240° Southwest  Level FlightAware Approximate
12:10AM 56.8106 177.3143 240° Southwest  Level FlightAware Approximate
12:11AM 56.7442 177.1053 240° Southwest  Level FlightAware Approximate
12:12AM 56.6775 176.8970 240° Southwest  Level FlightAware Approximate
12:13AM 56.6104 176.6895 240° Southwest  Level FlightAware Approximate
12:14AM 56.5429 176.4827 239° Southwest  Level FlightAware Approximate
12:15AM 56.4751 176.2767 239° Southwest  Level FlightAware Approximate
12:16AM 56.4070 176.0714 239° Southwest  Level FlightAware Approximate
12:17AM 56.3385 175.8668 239° Southwest  Level FlightAware Approximate
12:17AM 56.1833 175.4667 238° Southwest 470 541 36,000  Level Anchorage Center
12:18AM 56.2697 175.6629 239° Southwest  Level FlightAware Approximate
12:18AM 56.1167 175.2000 246° West 510 587 35,900  Level Anchorage Center
12:19AM 56.2006 175.4598 239° Southwest  Level FlightAware Approximate
12:19AM 56.0500 175.0167 237° Southwest 510 587 36,300  Level Anchorage Center
12:20AM 56.1311 175.2574 238° Southwest  Level FlightAware Approximate
12:20AM 55.9667 174.8000 236° Southwest 500 575 37,000  Level Anchorage Center
12:21AM 56.0613 175.0558 238° Southwest  Level FlightAware Approximate
12:21AM 55.9000 174.6167 237° Southwest 490 564 37,000  Level Anchorage Center
12:22AM 55.9912 174.8549 238° Southwest  Level FlightAware Approximate
12:22AM 55.8333 174.3833 243° Southwest 490 564 37,000  Level Anchorage Center
12:23AM 55.7500 174.1667 236° Southwest 490 564 37,000  Level Anchorage Center
12:24AM 55.6833 174.0000 235° Southwest 480 552 37,000  Level Anchorage Center
12:25AM 55.6000 173.7667 238° Southwest 490 564 37,000  Level Anchorage Center
12:26AM 55.5333 173.5833 237° Southwest 500 575 37,000  Level Anchorage Center
12:27AM 55.4500 173.3667 236° Southwest 500 575 37,000  Level Anchorage Center
12:28AM 55.3833 173.1833 237° Southwest 500 575 37,000  Level Anchorage Center
12:29AM 55.3000 172.9667 236° Southwest 490 564 37,000  Level Anchorage Center
12:30AM 55.2167 172.7500 236° Southwest 500 575 37,000  Level Anchorage Center
12:31AM 55.1500 172.5667 238° Southwest 500 575 37,000  Level Anchorage Center
12:32AM 55.0667 172.3667 234° Southwest 490 564 37,000  Level Anchorage Center
12:33AM 55.0000 172.1833 238° Southwest 500 575 37,000  Level Anchorage Center
12:34AM 54.9167 171.9667 236° Southwest 500 575 37,000  Level Anchorage Center
12:35AM 54.8500 171.8000 235° Southwest 480 552 37,000  Level Anchorage Center
12:36AM 54.7667 171.5833 236° Southwest 500 575 37,000  Level Anchorage Center
12:37AM 54.7000 171.4167 235° Southwest 490 564 37,000  Level Anchorage Center
12:38AM 54.6000 171.2167 229° Southwest 490 564 37,000  Level Anchorage Center
12:39AM 54.5167 171.0000 237° Southwest 490 564 37,000  Level Anchorage Center
12:40AM 54.4500 170.8333 236° Southwest 500 575 37,000  Level Anchorage Center
12:41AM 54.3500 170.6167 232° Southwest 500 575 37,000  Level Anchorage Center
12:42AM 54.2833 170.4667 233° Southwest 480 552 37,000  Level Anchorage Center
12:43AM 54.2000 170.2667 235° Southwest 480 552 37,000  Level Anchorage Center
12:44AM 54.1333 170.1000 236° Southwest 500 575 37,000  Level Anchorage Center
12:45AM 54.0333 169.8833 232° Southwest 500 575 37,000  Level Anchorage Center
12:46AM 53.9500 169.7000 232° Southwest 480 552 37,000  Level Anchorage Center
12:47AM 53.8833 169.5333 236° Southwest 480 552 37,000  Level Anchorage Center
12:48AM 53.7833 169.3333 230° Southwest 510 587 37,000  Level Anchorage Center
12:49AM 53.7167 169.1667 236° Southwest 490 564 37,000  Level Anchorage Center
12:50AM 53.6333 168.9500 237° Southwest 510 587 37,000  Level Anchorage Center
12:51AM 53.5833 168.7667 245° Southwest 500 575 37,000  Level Anchorage Center
12:52AM 53.5167 168.5500 243° Southwest 500 575 37,000  Level Anchorage Center
12:53AM 53.4500 168.3833 236° Southwest 510 587 37,000  Level Anchorage Center
12:55AM 53.3554 168.1050 240° Southwest  Level FlightAware Approximate
01:02AM 52.8831 166.7854 240° Southwest  Level FlightAware Approximate
01:03AM 52.8145 166.5992 239° Southwest  Level FlightAware Approximate
01:04AM 52.7455 166.4136 239° Southwest  Level FlightAware Approximate
01:05AM 52.6763 166.2287 238° Southwest  Level FlightAware Approximate
01:06AM 52.6068 166.0443 238° Southwest  Level FlightAware Approximate
01:07AM 52.5370 165.8604 238° Southwest  Level FlightAware Approximate
01:08AM 52.4669 165.6772 238° Southwest  Level FlightAware Approximate
01:09AM 52.3965 165.4946 238° Southwest  Level FlightAware Approximate
01:10AM 52.3259 165.3125 238° Southwest  Level FlightAware Approximate
01:11AM 52.2550 165.1310 237° Southwest  Level FlightAware Approximate
01:12AM 52.1838 164.9501 237° Southwest  Level FlightAware Approximate
01:13AM 52.1123 164.7698 237° Southwest  Level FlightAware Approximate
01:14AM 52.0405 164.5901 237° Southwest  Level FlightAware Approximate
01:15AM 51.9685 164.4109 237° Southwest  Level FlightAware Approximate
01:16AM 51.8962 164.2323 237° Southwest  Level FlightAware Approximate
01:17AM 51.8236 164.0543 237° Southwest  Level FlightAware Approximate
01:18AM 51.7508 163.8769 237° Southwest  Level FlightAware Approximate
01:19AM 51.6777 163.7000 236° Southwest  Level FlightAware Approximate
01:20AM 51.6043 163.5238 236° Southwest  Level FlightAware Approximate
01:21AM 51.5306 163.3482 236° Southwest  Level FlightAware Approximate
01:22AM 51.4566 163.1731 236° Southwest  Level FlightAware Approximate
01:23AM 51.3823 162.9987 236° Southwest  Level FlightAware Approximate
01:24AM 51.3078 162.8247 236° Southwest  Level FlightAware Approximate
01:25AM 51.2331 162.6514 235° Southwest  Level FlightAware Approximate
01:26AM 51.1581 162.4786 235° Southwest  Level FlightAware Approximate
01:27AM 51.0828 162.3064 235° Southwest  Level FlightAware Approximate
01:28AM 51.0073 162.1347 235° Southwest  Level FlightAware Approximate
01:29AM 50.9315 161.9636 235° Southwest  Level FlightAware Approximate
01:30AM 50.8555 161.7930 235° Southwest  Level FlightAware Approximate
01:31AM 50.7792 161.6230 235° Southwest  Level FlightAware Approximate
01:32AM 50.7027 161.4536 235° Southwest  Level FlightAware Approximate
01:33AM 50.6260 161.2847 234° Southwest  Level FlightAware Approximate
01:34AM 50.5490 161.1163 234° Southwest  Level FlightAware Approximate
01:35AM 50.4717 160.9486 234° Southwest  Level FlightAware Approximate
01:36AM 50.3942 160.7813 234° Southwest  Level FlightAware Approximate
01:37AM 50.3165 160.6146 234° Southwest  Level FlightAware Approximate
01:38AM 50.2386 160.4485 234° Southwest  Level FlightAware Approximate
01:39AM 50.1607 160.2825 234° Southwest  Level FlightAware Approximate
01:40AM 50.0829 160.1167 234° Southwest  Level FlightAware Approximate
01:41AM 50.0048 159.9515 234° Southwest  Level FlightAware Approximate
01:42AM 49.9266 159.7867 234° Southwest  Level FlightAware Approximate
01:43AM 49.8481 159.6226 233° Southwest  Level FlightAware Approximate
01:44AM 49.7713 159.4631 233° Southwest  Level FlightAware Approximate
01:45AM 49.6941 159.3214 233° Southwest  Level FlightAware Approximate
01:46AM 49.6164 159.1635 233° Southwest  Level FlightAware Approximate
01:47AM 49.5369 159.0031 233° Southwest  Level FlightAware Approximate
01:48AM 49.4572 158.8433 233° Southwest  Level FlightAware Approximate
01:49AM 49.3773 158.6839 232° Southwest  Level FlightAware Approximate
01:50AM 49.2972 158.5250 232° Southwest  Level FlightAware Approximate
01:51AM 49.2168 158.3667 232° Southwest  Level FlightAware Approximate
01:52AM 49.1363 158.2089 232° Southwest  Level FlightAware Approximate
01:53AM 49.0555 158.0516 232° Southwest  Level FlightAware Approximate
01:54AM 48.9745 157.8948 232° Southwest  Level FlightAware Approximate
01:55AM 48.8933 157.7385 232° Southwest  Level FlightAware Approximate
01:56AM 48.8119 157.5827 232° Southwest  Level FlightAware Approximate
01:57AM 48.7303 157.4274 232° Southwest  Level FlightAware Approximate
01:58AM 48.6493 157.2717 232° Southwest  Level FlightAware Approximate
01:59AM 48.5681 157.1164 232° Southwest  Level FlightAware Approximate
02:00AM 48.4867 156.9616 232° Southwest  Level FlightAware Approximate
02:01AM 48.4050 156.8073 231° Southwest  Level FlightAware Approximate
02:02AM 48.3232 156.6535 231° Southwest  Level FlightAware Approximate
02:03AM 48.2411 156.5004 231° Southwest  Level FlightAware Approximate
02:04AM 48.1579 156.3487 231° Southwest  Level FlightAware Approximate
02:05AM 48.0746 156.1975 231° Southwest  Level FlightAware Approximate
02:06AM 47.9911 156.0468 230° Southwest  Level FlightAware Approximate
02:07AM 47.9073 155.8966 230° Southwest  Level FlightAware Approximate
02:08AM 47.8234 155.7469 230° Southwest  Level FlightAware Approximate
02:09AM 47.7393 155.5976 230° Southwest  Level FlightAware Approximate
02:10AM 47.6549 155.4488 230° Southwest  Level FlightAware Approximate
02:11AM 47.5705 155.3005 230° Southwest  Level FlightAware Approximate
02:12AM 47.4858 155.1527 230° Southwest  Level FlightAware Approximate
02:13AM 47.4009 155.0053 230° Southwest  Level FlightAware Approximate
02:14AM 47.3159 154.8584 230° Southwest  Level FlightAware Approximate
02:15AM 47.2307 154.7120 230° Southwest  Level FlightAware Approximate
02:16AM 47.1461 154.5650 230° Southwest  Level FlightAware Approximate
02:17AM 47.0613 154.4185 230° Southwest  Level FlightAware Approximate
02:18AM 46.9763 154.2724 230° Southwest  Level FlightAware Approximate
02:19AM 46.8912 154.1268 229° Southwest  Level FlightAware Approximate
02:20AM 46.8059 153.9816 229° Southwest  Level FlightAware Approximate
02:21AM 46.7203 153.8370 229° Southwest  Level FlightAware Approximate
02:22AM 46.6347 153.6927 229° Southwest  Level FlightAware Approximate
02:23AM 46.5488 153.5490 229° Southwest  Level FlightAware Approximate
02:24AM 46.4627 153.4057 229° Southwest  Level FlightAware Approximate
02:25AM 46.3765 153.2628 229° Southwest  Level FlightAware Approximate
02:26AM 46.2901 153.1204 229° Southwest  Level FlightAware Approximate
02:27AM 46.2033 152.9787 228° Southwest  Level FlightAware Approximate
02:28AM 46.1150 152.8392 228° Southwest  Level FlightAware Approximate
02:29AM 46.0266 152.7000 228° Southwest  Level FlightAware Approximate
02:30AM 45.9380 152.5614 227° Southwest  Level FlightAware Approximate
02:31AM 45.8492 152.4231 227° Southwest  Level FlightAware Approximate
02:32AM 45.7603 152.2854 227° Southwest  Level FlightAware Approximate
02:33AM 45.6713 152.1479 227° Southwest  Level FlightAware Approximate
02:34AM 45.5824 152.0104 227° Southwest  Level FlightAware Approximate
02:35AM 45.4935 151.8734 227° Southwest  Level FlightAware Approximate
02:36AM 45.4043 151.7368 227° Southwest  Level FlightAware Approximate
02:37AM 45.3150 151.6006 227° Southwest  Level FlightAware Approximate
02:38AM 45.2255 151.4648 227° Southwest  Level FlightAware Approximate
02:39AM 45.1359 151.3294 227° Southwest  Level FlightAware Approximate
02:40AM 45.0461 151.1945 227° Southwest  Level FlightAware Approximate
02:41AM 44.9562 151.0600 227° Southwest  Level FlightAware Approximate
02:42AM 44.8660 150.9260 227° Southwest  Level FlightAware Approximate
02:43AM 44.7758 150.7923 226° Southwest  Level FlightAware Approximate
02:44AM 44.6853 150.6591 226° Southwest  Level FlightAware Approximate
02:45AM 44.5948 150.5263 226° Southwest  Level FlightAware Approximate
02:46AM 44.5040 150.3939 226° Southwest  Level FlightAware Approximate
02:47AM 44.4132 150.2619 226° Southwest  Level FlightAware Approximate
02:48AM 44.3221 150.1303 226° Southwest  Level FlightAware Approximate
02:49AM 44.2309 149.9991 226° Southwest  Level FlightAware Approximate
02:50AM 44.1396 149.8684 226° Southwest  Level FlightAware Approximate
02:51AM 44.0481 149.7380 226° Southwest  Level FlightAware Approximate
02:52AM 43.9565 149.6080 226° Southwest  Level FlightAware Approximate
02:53AM 43.8647 149.4785 226° Southwest  Level FlightAware Approximate
02:54AM 43.7728 149.3493 225° Southwest  Level FlightAware Approximate
02:55AM 43.6807 149.2206 225° Southwest  Level FlightAware Approximate
02:56AM 43.5885 149.0922 225° Southwest  Level FlightAware Approximate
02:57AM 43.4962 148.9642 225° Southwest  Level FlightAware Approximate
02:58AM 43.4037 148.8366 225° Southwest  Level FlightAware Approximate
02:59AM 43.3110 148.7094 225° Southwest  Level FlightAware Approximate
03:00AM 43.2183 148.5826 225° Southwest  Level FlightAware Approximate
03:00AM 42.8400 148.1100 225° Southwest 477 549 38,000  Level FlightAware
03:00AM 42.7870 148.0370 225° Southwest 477 549 38,000  Level FlightAware
03:01AM 43.1253 148.4562 225° Southwest  Level FlightAware Approximate
03:01AM 42.7330 147.9650 224° Southwest 477 549 38,000  Level FlightAware
03:02AM 42.6800 147.8930 225° Southwest 477 549 38,000  Level FlightAware
03:03AM 42.6140 147.8030 225° Southwest 477 549 38,000  Level FlightAware
03:03AM 42.5610 147.7310 225° Southwest 477 549 38,000  Level FlightAware
03:04AM 42.5080 147.6590 225° Southwest 477 549 38,000  Level FlightAware
03:05AM 42.4550 147.5870 225° Southwest 477 549 38,000  Level FlightAware
03:05AM 42.4020 147.5150 225° Southwest 477 549 38,000  Level FlightAware
03:06AM 42.3360 147.4250 225° Southwest 477 549 38,000  Level FlightAware
03:07AM 42.2820 147.3530 225° Southwest 477 549 38,000  Level FlightAware
03:07AM 42.2290 147.2820 225° Southwest 477 549 38,000  Level FlightAware
03:08AM 42.1760 147.2100 225° Southwest 477 549 38,000  Level FlightAware
03:09AM 42.1230 147.1380 225° Southwest 477 549 38,000  Level FlightAware
03:10AM 41.8420 146.7650 225° Southwest 473 544 38,000 -60 Level FlightAware
03:11AM 41.7720 146.6720 225° Southwest 470 541 37,900  Descending FlightAware
03:12AM 41.7100 146.5900 225° Southwest 465 535 38,000 60 Climbing FlightAware
03:12AM 41.6490 146.5100 224° Southwest 463 533 38,000  Level FlightAware
03:13AM 41.5790 146.4180 225° Southwest 468 539 38,000  Level FlightAware
03:14AM 41.5170 146.3370 224° Southwest 470 541 38,000  Level FlightAware
03:15AM 41.4480 146.2470 224° Southwest 473 544 38,000 -120 Level FlightAware
03:15AM 41.3850 146.1640 225° Southwest 473 544 37,900 -120 Descending FlightAware
03:16AM 41.3210 146.0820 224° Southwest 474 545 37,900 60 Level FlightAware
03:17AM 41.2500 145.9910 224° Southwest 475 547 38,000 60 Climbing FlightAware
03:17AM 41.1870 145.9100 224° Southwest 473 544 38,000 -120 Level FlightAware
03:18AM 41.1170 145.8200 224° Southwest 468 539 37,900  Descending FlightAware
03:19AM 41.0550 145.7410 224° Southwest 466 536 38,000 60 Climbing FlightAware
03:19AM 40.9940 145.6640 224° Southwest 465 535 38,000 -120 Level FlightAware
03:20AM 40.9230 145.5740 224° Southwest 464 534 37,900 -120 Descending FlightAware
03:21AM 40.8650 145.5000 224° Southwest 461 531 37,900 60 Level FlightAware
03:22AM 40.7910 145.4080 223° Southwest 461 531 38,000  Climbing FlightAware
03:22AM 40.7310 145.3340 223° Southwest 455 524 37,900  Descending FlightAware
03:23AM 40.6600 145.2450 224° Southwest 462 532 38,000 60 Climbing FlightAware
03:24AM 40.5930 145.1640 223° Southwest 462 532 38,000  Level FlightAware
03:25AM 40.5400 145.0990 223° Southwest 462 532 38,000  Level FlightAware
03:25AM 40.4870 145.0330 223° Southwest 462 532 38,000  Level FlightAware
03:27AM 40.3130 144.8190 223° Southwest 461 531 38,000  Level FlightAware
03:27AM 40.2380 144.7300 222° Southwest 465 535 38,000  Level FlightAware
03:28AM 40.1710 144.6500 222° Southwest 465 535 38,000  Level FlightAware
03:29AM 40.1160 144.5860 222° Southwest 465 535 38,000  Level FlightAware
03:30AM 40.0620 144.5220 222° Southwest 465 535 38,000  Level FlightAware
03:30AM 40.0070 144.4580 222° Southwest 465 535 38,000  Level FlightAware
03:31AM 39.9530 144.3940 222° Southwest 465 535 38,000  Level FlightAware
03:32AM 39.8990 144.3300 222° Southwest 465 535 38,000  Level FlightAware
03:32AM 39.8310 144.2510 222° Southwest 465 535 38,000  Level FlightAware
03:33AM 39.7760 144.1870 222° Southwest 465 535 38,000  Level FlightAware
03:34AM 39.7220 144.1230 222° Southwest 465 535 38,000  Level FlightAware
03:34AM 39.6680 144.0600 222° Southwest 465 535 38,000  Level FlightAware
03:35AM 39.6000 143.9800 222° Southwest 465 535 38,000  Level FlightAware
03:36AM 39.5450 143.9170 221° Southwest 465 535 38,000  Level FlightAware
03:37AM 39.4910 143.8530 222° Southwest 465 535 38,000 -60 Level FlightAware
03:39AM 39.2989 143.6530 219° Southwest  Level FlightAware Approximate
03:40AM 39.1968 143.5473 219° Southwest  Level FlightAware Approximate
03:40AM 39.1110 143.4220 219° Southwest 439 505 37,900  Level FlightAware
03:41AM 39.0040 143.3030 221° Southwest 439 505 38,000  Climbing FlightAware
03:41AM 38.9510 143.2450 220° Southwest 439 505 38,000 -120 Level FlightAware
03:42AM 38.8600 143.1710 212° Southwest 440 506 37,900 -120 Descending FlightAware
03:43AM 38.8070 143.1140 220° Southwest 440 506 37,900  Level FlightAware
03:44AM 38.7540 143.0570 220° Southwest 440 506 37,900 60 Level FlightAware
03:44AM 38.5650 143.1890 151° Southeast 490 564 38,000  Climbing FlightAware
03:46AM 38.2740 143.1520 186° South 496 571 38,000  Level FlightAware
03:48AM 38.0310 143.1230 185° South 497 572 38,000  Level FlightAware
03:49AM 37.8780 143.1040 186° South 499 574 38,000  Level FlightAware
03:50AM 37.7720 143.0920 185° South 500 575 38,000  Level FlightAware
03:51AM 37.6340 143.0760 185° South 503 579 38,000 -60 Level FlightAware
03:52AM 37.4260 143.0510 230° Southwest 497 572 37,900  Descending FlightAware
03:53AM 37.5058 142.8844 230° Southwest  Level Estimated
03:53AM 37.2910 143.0110 193° South 478 550 38,000  Level FlightAware
03:55AM 37.1470 142.9280 205° Southwest 473 544 36,900 -900 Descending FlightAware
03:55AM 37.0620 142.8700 209° Southwest 476 548 36,300 -840 Descending FlightAware
03:56AM 36.9390 142.7830 209° Southwest 34,700 -840 Descending FlightAware
03:58AM 36.7370 142.6410 209° Southwest 465 535 34,000 -300 Descending FlightAware
03:59AM 36.6720 142.5960 209° Southwest 465 535 34,000  Level FlightAware
04:00AM 36.6080 142.5520 209° Southwest 465 535 34,000  Level FlightAware
04:00AM 36.5440 142.5080 209° Southwest 465 535 34,000  Level FlightAware
04:01AM 36.4260 142.4240 210° Southwest 473 544 34,000  Level FlightAware
04:02AM 36.3670 142.3830 209° Southwest 475 547 34,000 -840 Level FlightAware
04:02AM 36.2680 142.3140 209° Southwest 477 549 32,900 -2,100 Descending FlightAware
04:03AM 36.1870 142.2580 209° Southwest 471 542 30,900 -2,340 Descending FlightAware
04:04AM 36.1090 142.2040 209° Southwest 455 524 29,600 -2,100 Descending FlightAware
04:04AM 36.0520 142.1640 210° Southwest 446 513 28,300 -2,400 Descending FlightAware
04:05AM 35.9620 142.1020 209° Southwest 428 493 26,200 -2,520 Descending FlightAware
04:06AM 35.9030 142.0610 209° Southwest 404 465 24,800 -2,400 Descending FlightAware
04:07AM 35.8250 142.0070 209° Southwest 390 449 22,800 -2,520 Descending FlightAware
04:07AM 35.7520 141.9570 209° Southwest 390 449 20,900 -2,580 Descending FlightAware
04:08AM 35.6650 141.8960 210° Southwest 382 440 18,500 -2,580 Descending FlightAware
04:09AM 35.5870 141.8390 211° Southwest 366 421 16,400 -1,800 Descending FlightAware
04:10AM 35.5610 141.7750 243° Southwest 345 397 16,000 -420 Descending FlightAware
04:10AM 35.5560 141.6990 265° West 338 389 15,900 -1,080 Descending FlightAware
04:11AM 35.5510 141.6130 266° West 336 387 14,500 -1,380 Descending FlightAware
04:12AM 35.5520 141.5400 271° West 333 383 14,000 -780 Descending FlightAware
04:12AM 35.5780 141.4740 296° West 331 381 13,500 -840 Descending FlightAware
04:13AM 35.6100 141.4040 299° West 330 380 12,900 -900 Descending FlightAware
04:14AM 35.6340 141.3500 299° West 330 380 12,400 -840 Descending FlightAware
04:14AM 35.6670 141.2750 298° West 327 376 11,800 -780 Descending FlightAware
04:15AM 35.7040 141.1940 299° West 322 371 11,200 -840 Descending FlightAware
04:16AM 35.7320 141.1300 298° West 310 357 10,600 -720 Descending FlightAware
04:17AM 35.7600 141.0660 298° West 283 326 10,200 -600 Descending FlightAware
04:17AM 35.7750 141.0340 300° West 268 308 9,900 -720 Descending FlightAware
04:17AM 35.7910 140.9980 299° West 257 296 9,600 -600 Descending FlightAware
04:18AM 35.8160 140.9420 299° West 256 295 9,200 -600 Descending FlightAware
04:18AM 35.8200 140.9330 299° West 256 295 9,100 -300 Descending FlightAware
04:19AM 35.8440 140.8820 300° West 257 296 9,000 -120 Descending FlightAware
04:19AM 35.8520 140.8640 299° West 257 296 9,000  Level FlightAware
04:20AM 35.8680 140.8310 301° West 236 272 9,000  Level FlightAware
04:20AM 35.8840 140.7960 299° West 233 268 9,000  Level FlightAware
04:21AM 35.8970 140.7680 300° West 234 269 9,000  Level FlightAware
04:21AM 35.9100 140.7410 301° West 233 268 9,000 -240 Level FlightAware
04:21AM 35.9270 140.7040 300° West 229 264 8,800 -840 Descending FlightAware
04:22AM 35.9350 140.6870 300° West 231 266 8,400 -1,380 Descending FlightAware
04:22AM 35.9440 140.6680 300° West 233 268 8,000 -1,440 Descending FlightAware
04:23AM 35.9680 140.6170 300° West 231 266 6,900 -1,500 Descending FlightAware
04:23AM 35.9780 140.5920 296° West 231 266 6,400 -1,380 Descending FlightAware
04:23AM 35.9800 140.5700 276° West 237 273 6,000 -300 Descending FlightAware
04:25AM 35.9740 140.4850 265° West 200 230 6,000 -120 Level FlightAware
04:25AM 35.9690 140.4630 254° West 190 219 5,900 -960 Descending FlightAware
04:25AM 35.9640 140.4370 257° West 189 217 5,300 -1,200 Descending FlightAware
04:26AM 35.9600 140.3950 263° West 177 204 4,600 -1,200 Descending FlightAware
04:27AM 35.9580 140.3500 267° West 177 204 3,600 -1,320 Descending FlightAware
04:27AM 35.9580 140.3300 270° West 180 207 3,200 -1,200 Descending FlightAware
04:27AM 35.9580 140.3100 270° West 179 206 2,800 -420 Descending FlightAware
04:28AM 35.9330 140.2900 213° Southwest 156 180 2,800  Level FlightAware
04:28AM 35.9200 140.2960 160° South 161 185 2,800  Level FlightAware
04:29AM 35.9070 140.3060 148° Southeast 162 186 2,800 -360 Level FlightAware
04:30AM 35.8650 140.3360 150° Southeast 160 184 2,300 -660 Descending FlightAware
04:31AM 35.8250 140.3640 150° Southeast 142 163 1,400 -840 Descending FlightAware
04:31AM 35.8090 140.3760 149° Southeast 131 151 1,000 -480 Descending FlightAware
04:32AM 35.7970 140.3850 149° Southeast 131 151 1,000  Level FlightAware